Weather at Evansville Regional Airport

Public forecast

Using degrees Fahrenheit for public forecast. Weather courtesy of forecast.io.

Current aviation weather report (METAR) for Evansville Regional Airport

2024/05/28 23:54 (retrieved 24 minutes ago)

KEVV 282354Z 31010G16KT 10SM FEW085 25/09 A3002 RMK AO2 SLP163 T02500094 10278 20250 53004

Closest aviation forecast (TAF) to Evansville Regional Airport

Closest forecast is Godman Army Air Field, 74.3 nm (137.5 km) E.

2024/05/28 19:06 (retrieved 5 hours ago)

TAF KFTK 281900Z 2819/3001 28012G18KT 9999 SCT050 QNH2994INS BECMG 2823/2824 29006KT 9999 SCT250 QNH3000INS BECMG 2915/2916 30010G15KT 9999 SCT030 SCT250 QNH3008INS TX27/2820Z TN14/2910Z LAST NO AMDS AFT 2903 NEXT 2911